sensor_id;sensor_type;location;lat;lon;timestamp;temperature;humidity
82782;DHT22;72517;47.260;11.422;2023-11-21T00:01:06;8.60;99.90
82782;DHT22;72517;47.260;11.422;2023-11-21T00:03:34;8.60;99.90
82782;DHT22;72517;47.260;11.422;2023-11-21T00:06:01;8.60;99.90
82782;DHT22;72517;47.260;11.422;2023-11-21T00:08:28;8.60;99.90
82782;DHT22;72517;47.260;11.422;2023-11-21T00:10:55;8.50;99.90
82782;DHT22;72517;47.260;11.422;2023-11-21T00:13:22;8.60;99.90
82782;DHT22;72517;47.260;11.422;2023-11-21T00:15:49;8.70;99.90
82782;DHT22;72517;47.260;11.422;2023-11-21T00:18:16;8.60;99.90
82782;DHT22;72517;47.260;11.422;2023-11-21T00:20:42;8.60;99.90
82782;DHT22;72517;47.260;11.422;2023-11-21T00:23:09;8.60;99.90
82782;DHT22;72517;47.260;11.422;2023-11-21T00:25:36;8.60;99.90
82782;DHT22;72517;47.260;11.422;2023-11-21T00:28:03;8.70;99.90
82782;DHT22;72517;47.260;11.422;2023-11-21T00:30:31;8.70;99.90
82782;DHT22;72517;47.260;11.422;2023-11-21T00:32:58;8.70;99.90
82782;DHT22;72517;47.260;11.422;2023-11-21T00:35:25;8.60;99.90
82782;DHT22;72517;47.260;11.422;2023-11-21T00:37:52;8.60;99.90
82782;DHT22;72517;47.260;11.422;2023-11-21T00:40:19;8.60;99.90
82782;DHT22;72517;47.260;11.422;2023-11-21T00:42:47;8.60;99.90
82782;DHT22;72517;47.260;11.422;2023-11-21T00:45:14;8.60;99.90
82782;DHT22;72517;47.260;11.422;2023-11-21T00:47:41;8.60;99.90
82782;DHT22;72517;47.260;11.422;2023-11-21T00:50:08;8.60;99.90
82782;DHT22;72517;47.260;11.422;2023-11-21T00:52:35;8.60;99.90
82782;DHT22;72517;47.260;11.422;2023-11-21T00:55:03;8.70;99.90
82782;DHT22;72517;47.260;11.422;2023-11-21T00:57:30;8.70;99.90
82782;DHT22;72517;47.260;11.422;2023-11-21T00:59:56;8.70;99.90
82782;DHT22;72517;47.260;11.422;2023-11-21T01:02:23;8.60;99.90
82782;DHT22;72517;47.260;11.422;2023-11-21T01:04:50;8.60;99.90
82782;DHT22;72517;47.260;11.422;2023-11-21T01:07:17;8.60;99.90
82782;DHT22;72517;47.260;11.422;2023-11-21T01:09:46;8.60;99.90
82782;DHT22;72517;47.260;11.422;2023-11-21T01:12:14;8.60;99.90
82782;DHT22;72517;47.260;11.422;2023-11-21T01:14:42;8.50;99.90
82782;DHT22;72517;47.260;11.422;2023-11-21T01:17:10;8.50;99.90
82782;DHT22;72517;47.260;11.422;2023-11-21T01:19:37;8.50;99.90
82782;DHT22;72517;47.260;11.422;2023-11-21T01:22:04;8.50;99.90
82782;DHT22;72517;47.260;11.422;2023-11-21T01:24:31;8.60;99.90
82782;DHT22;72517;47.260;11.422;2023-11-21T01:26:57;8.60;99.90
82782;DHT22;72517;47.260;11.422;2023-11-21T01:29:24;8.60;99.90
82782;DHT22;72517;47.260;11.422;2023-11-21T01:31:51;8.60;99.90
82782;DHT22;72517;47.260;11.422;2023-11-21T01:34:18;8.60;99.90
82782;DHT22;72517;47.260;11.422;2023-11-21T01:36:46;8.60;99.90
82782;DHT22;72517;47.260;11.422;2023-11-21T01:39:13;8.60;99.90
82782;DHT22;72517;47.260;11.422;2023-11-21T01:41:41;8.60;99.90
82782;DHT22;72517;47.260;11.422;2023-11-21T01:44:09;8.70;99.90
82782;DHT22;72517;47.260;11.422;2023-11-21T01:46:36;8.70;99.90
82782;DHT22;72517;47.260;11.422;2023-11-21T01:49:04;8.70;99.90
82782;DHT22;72517;47.260;11.422;2023-11-21T01:51:32;8.70;99.90
82782;DHT22;72517;47.260;11.422;2023-11-21T01:53:59;8.60;99.90
82782;DHT22;72517;47.260;11.422;2023-11-21T01:56:26;8.60;99.90
82782;DHT22;72517;47.260;11.422;2023-11-21T01:58:53;8.60;99.90
82782;DHT22;72517;47.260;11.422;2023-11-21T02:01:20;8.50;99.90
82782;DHT22;72517;47.260;11.422;2023-11-21T02:03:47;8.50;99.90
82782;DHT22;72517;47.260;11.422;2023-11-21T02:06:14;8.40;99.90
82782;DHT22;72517;47.260;11.422;2023-11-21T02:08:41;8.40;99.90
82782;DHT22;72517;47.260;11.422;2023-11-21T02:11:09;8.30;99.90
82782;DHT22;72517;47.260;11.422;2023-11-21T02:13:38;8.20;99.90
82782;DHT22;72517;47.260;11.422;2023-11-21T02:16:09;8.20;99.90
82782;DHT22;72517;47.260;11.422;2023-11-21T02:18:38;8.10;99.90
82782;DHT22;72517;47.260;11.422;2023-11-21T02:21:05;8.20;99.90
82782;DHT22;72517;47.260;11.422;2023-11-21T02:23:33;8.20;99.90
82782;DHT22;72517;47.260;11.422;2023-11-21T02:26:00;8.30;99.90
82782;DHT22;72517;47.260;11.422;2023-11-21T02:28:29;8.30;99.90
82782;DHT22;72517;47.260;11.422;2023-11-21T02:30:56;8.20;99.90
82782;DHT22;72517;47.260;11.422;2023-11-21T02:33:24;8.10;99.90
82782;DHT22;72517;47.260;11.422;2023-11-21T02:35:54;8.00;99.90
82782;DHT22;72517;47.260;11.422;2023-11-21T02:38:21;8.00;99.90
82782;DHT22;72517;47.260;11.422;2023-11-21T02:40:48;7.90;99.90
82782;DHT22;72517;47.260;11.422;2023-11-21T02:43:15;8.00;99.90
82782;DHT22;72517;47.260;11.422;2023-11-21T02:45:42;8.00;99.90
82782;DHT22;72517;47.260;11.422;2023-11-21T02:48:09;8.00;99.90
82782;DHT22;72517;47.260;11.422;2023-11-21T02:50:36;7.90;99.90
82782;DHT22;72517;47.260;11.422;2023-11-21T02:53:04;7.90;99.90
82782;DHT22;72517;47.260;11.422;2023-11-21T02:55:32;7.80;99.90
82782;DHT22;72517;47.260;11.422;2023-11-21T02:58:01;7.80;99.90
82782;DHT22;72517;47.260;11.422;2023-11-21T03:00:29;7.80;99.90
82782;DHT22;72517;47.260;11.422;2023-11-21T03:02:56;7.80;99.90
82782;DHT22;72517;47.260;11.422;2023-11-21T03:05:23;7.80;99.90
82782;DHT22;72517;47.260;11.422;2023-11-21T03:07:50;7.80;99.90
82782;DHT22;72517;47.260;11.422;2023-11-21T03:10:17;7.80;99.90
82782;DHT22;72517;47.260;11.422;2023-11-21T03:12:44;7.90;99.90
82782;DHT22;72517;47.260;11.422;2023-11-21T03:15:11;7.90;99.90
82782;DHT22;72517;47.260;11.422;2023-11-21T03:17:39;7.90;99.90
82782;DHT22;72517;47.260;11.422;2023-11-21T03:20:06;7.80;99.90
82782;DHT22;72517;47.260;11.422;2023-11-21T03:22:39;7.80;99.90
82782;DHT22;72517;47.260;11.422;2023-11-21T03:25:07;7.70;99.90
82782;DHT22;72517;47.260;11.422;2023-11-21T03:27:38;7.70;99.90
82782;DHT22;72517;47.260;11.422;2023-11-21T03:30:07;7.60;99.90
82782;DHT22;72517;47.260;11.422;2023-11-21T03:32:34;7.50;99.90
82782;DHT22;72517;47.260;11.422;2023-11-21T03:35:04;7.50;99.90
82782;DHT22;72517;47.260;11.422;2023-11-21T03:37:33;7.40;99.90
82782;DHT22;72517;47.260;11.422;2023-11-21T03:40:00;7.30;99.90
82782;DHT22;72517;47.260;11.422;2023-11-21T03:42:29;7.30;99.90
82782;DHT22;72517;47.260;11.422;2023-11-21T03:44:56;7.30;99.90
82782;DHT22;72517;47.260;11.422;2023-11-21T03:47:23;7.20;99.90
82782;DHT22;72517;47.260;11.422;2023-11-21T03:49:50;7.20;99.90
82782;DHT22;72517;47.260;11.422;2023-11-21T03:52:17;7.30;99.90
82782;DHT22;72517;47.260;11.422;2023-11-21T03:54:43;7.40;99.90
82782;DHT22;72517;47.260;11.422;2023-11-21T03:57:11;7.40;99.90
82782;DHT22;72517;47.260;11.422;2023-11-21T03:59:42;7.40;99.90
82782;DHT22;72517;47.260;11.422;2023-11-21T04:02:09;7.30;99.90
82782;DHT22;72517;47.260;11.422;2023-11-21T04:04:36;7.30;99.90
82782;DHT22;72517;47.260;11.422;2023-11-21T04:07:03;7.20;99.90
82782;DHT22;72517;47.260;11.422;2023-11-21T04:09:31;7.20;99.90
82782;DHT22;72517;47.260;11.422;2023-11-21T04:11:57;7.20;99.90
82782;DHT22;72517;47.260;11.422;2023-11-21T04:14:24;7.20;99.90
82782;DHT22;72517;47.260;11.422;2023-11-21T04:16:51;7.10;99.90
82782;DHT22;72517;47.260;11.422;2023-11-21T04:19:19;7.10;99.90
82782;DHT22;72517;47.260;11.422;2023-11-21T04:21:46;7.10;99.90
82782;DHT22;72517;47.260;11.422;2023-11-21T04:24:13;7.10;99.90
82782;DHT22;72517;47.260;11.422;2023-11-21T04:26:44;7.10;99.90
82782;DHT22;72517;47.260;11.422;2023-11-21T04:29:11;7.20;99.90
82782;DHT22;72517;47.260;11.422;2023-11-21T04:31:38;7.30;99.90
82782;DHT22;72517;47.260;11.422;2023-11-21T04:34:05;7.30;99.90
82782;DHT22;72517;47.260;11.422;2023-11-21T04:36:32;7.30;99.90
82782;DHT22;72517;47.260;11.422;2023-11-21T04:39:00;7.40;99.90
82782;DHT22;72517;47.260;11.422;2023-11-21T04:41:29;7.40;99.90
82782;DHT22;72517;47.260;11.422;2023-11-21T04:43:57;7.40;99.90
82782;DHT22;72517;47.260;11.422;2023-11-21T04:46:24;7.40;99.90
82782;DHT22;72517;47.260;11.422;2023-11-21T04:48:51;7.30;99.90
82782;DHT22;72517;47.260;11.422;2023-11-21T04:51:18;7.30;99.90
82782;DHT22;72517;47.260;11.422;2023-11-21T04:53:45;7.30;99.90
82782;DHT22;72517;47.260;11.422;2023-11-21T04:56:12;7.30;99.90
82782;DHT22;72517;47.260;11.422;2023-11-21T04:58:39;7.40;99.90
82782;DHT22;72517;47.260;11.422;2023-11-21T05:01:07;7.50;99.90
82782;DHT22;72517;47.260;11.422;2023-11-21T05:03:35;7.50;99.90
82782;DHT22;72517;47.260;11.422;2023-11-21T05:06:04;7.60;99.90
82782;DHT22;72517;47.260;11.422;2023-11-21T05:08:31;7.60;99.90
82782;DHT22;72517;47.260;11.422;2023-11-21T05:10:58;7.50;99.90
82782;DHT22;72517;47.260;11.422;2023-11-21T05:13:25;7.50;99.90
82782;DHT22;72517;47.260;11.422;2023-11-21T05:15:54;7.50;99.90
82782;DHT22;72517;47.260;11.422;2023-11-21T05:18:21;7.50;99.90
82782;DHT22;72517;47.260;11.422;2023-11-21T05:20:48;7.50;99.90
82782;DHT22;72517;47.260;11.422;2023-11-21T05:23:15;7.50;99.90
82782;DHT22;72517;47.260;11.422;2023-11-21T05:25:42;7.50;99.90
82782;DHT22;72517;47.260;11.422;2023-11-21T05:28:09;7.50;99.90
82782;DHT22;72517;47.260;11.422;2023-11-21T05:30:36;7.60;99.90
82782;DHT22;72517;47.260;11.422;2023-11-21T05:33:04;7.60;99.90
82782;DHT22;72517;47.260;11.422;2023-11-21T05:35:31;7.60;99.90
82782;DHT22;72517;47.260;11.422;2023-11-21T05:37:58;7.60;99.90
82782;DHT22;72517;47.260;11.422;2023-11-21T05:40:25;7.60;99.90
82782;DHT22;72517;47.260;11.422;2023-11-21T05:42:55;7.60;99.90
82782;DHT22;72517;47.260;11.422;2023-11-21T05:45:22;7.60;99.90
82782;DHT22;72517;47.260;11.422;2023-11-21T05:47:49;7.50;99.90
82782;DHT22;72517;47.260;11.422;2023-11-21T05:50:16;7.50;99.90
82782;DHT22;72517;47.260;11.422;2023-11-21T05:52:45;7.40;99.90
82782;DHT22;72517;47.260;11.422;2023-11-21T05:55:12;7.40;99.90
82782;DHT22;72517;47.260;11.422;2023-11-21T05:57:40;7.30;99.90
82782;DHT22;72517;47.260;11.422;2023-11-21T06:00:10;7.30;99.90
82782;DHT22;72517;47.260;11.422;2023-11-21T06:02:44;7.40;99.90
82782;DHT22;72517;47.260;11.422;2023-11-21T06:05:11;7.40;99.90
82782;DHT22;72517;47.260;11.422;2023-11-21T06:07:38;7.40;99.90
82782;DHT22;72517;47.260;11.422;2023-11-21T06:10:06;7.40;99.90
82782;DHT22;72517;47.260;11.422;2023-11-21T06:12:35;7.40;99.90
82782;DHT22;72517;47.260;11.422;2023-11-21T06:15:05;7.40;99.90
82782;DHT22;72517;47.260;11.422;2023-11-21T06:17:37;7.50;99.90
82782;DHT22;72517;47.260;11.422;2023-11-21T06:20:09;7.50;99.90
82782;DHT22;72517;47.260;11.422;2023-11-21T06:22:40;7.50;99.90
82782;DHT22;72517;47.260;11.422;2023-11-21T06:25:08;7.60;99.90
82782;DHT22;72517;47.260;11.422;2023-11-21T06:27:39;7.60;99.90
82782;DHT22;72517;47.260;11.422;2023-11-21T06:30:07;7.60;99.90
82782;DHT22;72517;47.260;11.422;2023-11-21T06:32:36;7.60;99.90
82782;DHT22;72517;47.260;11.422;2023-11-21T06:35:03;7.60;99.90
82782;DHT22;72517;47.260;11.422;2023-11-21T06:37:32;7.60;99.90
82782;DHT22;72517;47.260;11.422;2023-11-21T06:40:00;7.60;99.90
82782;DHT22;72517;47.260;11.422;2023-11-21T06:42:29;7.60;99.90
82782;DHT22;72517;47.260;11.422;2023-11-21T06:44:56;7.60;99.90
82782;DHT22;72517;47.260;11.422;2023-11-21T06:47:24;7.60;99.90
82782;DHT22;72517;47.260;11.422;2023-11-21T06:49:54;7.60;99.90
82782;DHT22;72517;47.260;11.422;2023-11-21T06:52:22;7.60;99.90
82782;DHT22;72517;47.260;11.422;2023-11-21T06:54:48;7.60;99.90
82782;DHT22;72517;47.260;11.422;2023-11-21T06:57:16;7.60;99.90
82782;DHT22;72517;47.260;11.422;2023-11-21T06:59:43;7.70;99.90
82782;DHT22;72517;47.260;11.422;2023-11-21T07:02:10;7.70;99.90
82782;DHT22;72517;47.260;11.422;2023-11-21T07:04:37;7.70;99.90
82782;DHT22;72517;47.260;11.422;2023-11-21T07:07:04;7.80;99.90
82782;DHT22;72517;47.260;11.422;2023-11-21T07:09:32;7.80;99.90
82782;DHT22;72517;47.260;11.422;2023-11-21T07:11:59;7.90;99.90
82782;DHT22;72517;47.260;11.422;2023-11-21T07:14:27;7.90;99.90
82782;DHT22;72517;47.260;11.422;2023-11-21T07:16:54;8.00;99.90
82782;DHT22;72517;47.260;11.422;2023-11-21T07:19:22;8.10;99.90
82782;DHT22;72517;47.260;11.422;2023-11-21T07:21:49;8.20;99.90
82782;DHT22;72517;47.260;11.422;2023-11-21T07:24:17;8.40;99.90
82782;DHT22;72517;47.260;11.422;2023-11-21T07:26:44;8.50;99.90
82782;DHT22;72517;47.260;11.422;2023-11-21T07:29:11;8.60;99.90
82782;DHT22;72517;47.260;11.422;2023-11-21T07:31:38;8.80;99.90
82782;DHT22;72517;47.260;11.422;2023-11-21T07:34:06;8.90;99.90
82782;DHT22;72517;47.260;11.422;2023-11-21T07:36:33;9.00;99.90
82782;DHT22;72517;47.260;11.422;2023-11-21T07:39:00;9.10;99.90
82782;DHT22;72517;47.260;11.422;2023-11-21T07:41:28;9.00;98.70
82782;DHT22;72517;47.260;11.422;2023-11-21T07:43:55;9.00;98.10
82782;DHT22;72517;47.260;11.422;2023-11-21T07:46:22;9.00;98.30
82782;DHT22;72517;47.260;11.422;2023-11-21T07:48:49;9.00;99.00
82782;DHT22;72517;47.260;11.422;2023-11-21T07:51:17;9.00;99.10
82782;DHT22;72517;47.260;11.422;2023-11-21T07:53:44;9.10;98.90
82782;DHT22;72517;47.260;11.422;2023-11-21T07:56:12;9.10;99.00
82782;DHT22;72517;47.260;11.422;2023-11-21T07:58:39;9.10;98.50
82782;DHT22;72517;47.260;11.422;2023-11-21T08:01:06;9.20;98.10
82782;DHT22;72517;47.260;11.422;2023-11-21T08:03:33;9.20;97.70
82782;DHT22;72517;47.260;11.422;2023-11-21T08:06:00;9.20;96.80
82782;DHT22;72517;47.260;11.422;2023-11-21T08:08:28;9.10;97.10
82782;DHT22;72517;47.260;11.422;2023-11-21T08:10:55;9.10;97.00
82782;DHT22;72517;47.260;11.422;2023-11-21T08:13:26;9.10;97.80
82782;DHT22;72517;47.260;11.422;2023-11-21T08:15:59;9.10;97.10
82782;DHT22;72517;47.260;11.422;2023-11-21T08:18:30;9.10;97.00
82782;DHT22;72517;47.260;11.422;2023-11-21T08:20:57;9.00;97.20
82782;DHT22;72517;47.260;11.422;2023-11-21T08:23:24;9.10;97.70
82782;DHT22;72517;47.260;11.422;2023-11-21T08:25:54;9.10;98.00
82782;DHT22;72517;47.260;11.422;2023-11-21T08:28:22;9.20;98.00
82782;DHT22;72517;47.260;11.422;2023-11-21T08:30:54;9.30;97.70
82782;DHT22;72517;47.260;11.422;2023-11-21T08:33:21;9.40;97.50
82782;DHT22;72517;47.260;11.422;2023-11-21T08:35:48;9.50;97.80
82782;DHT22;72517;47.260;11.422;2023-11-21T08:38:15;9.60;97.20
82782;DHT22;72517;47.260;11.422;2023-11-21T08:40:43;9.80;96.40
82782;DHT22;72517;47.260;11.422;2023-11-21T08:43:10;10.10;95.50
82782;DHT22;72517;47.260;11.422;2023-11-21T08:45:37;10.40;95.50
82782;DHT22;72517;47.260;11.422;2023-11-21T08:48:04;10.60;94.30
82782;DHT22;72517;47.260;11.422;2023-11-21T08:50:31;10.80;93.30
82782;DHT22;72517;47.260;11.422;2023-11-21T08:52:59;11.00;92.60
82782;DHT22;72517;47.260;11.422;2023-11-21T08:55:26;11.10;91.90
82782;DHT22;72517;47.260;11.422;2023-11-21T08:57:54;11.30;90.20
82782;DHT22;72517;47.260;11.422;2023-11-21T09:00:21;11.30;86.60
82782;DHT22;72517;47.260;11.422;2023-11-21T09:02:48;11.30;86.80
82782;DHT22;72517;47.260;11.422;2023-11-21T09:05:15;11.30;84.50
82782;DHT22;72517;47.260;11.422;2023-11-21T09:07:42;11.30;83.00
82782;DHT22;72517;47.260;11.422;2023-11-21T09:10:11;11.50;83.10
82782;DHT22;72517;47.260;11.422;2023-11-21T09:12:38;11.60;83.20
82782;DHT22;72517;47.260;11.422;2023-11-21T09:15:06;11.60;80.20
82782;DHT22;72517;47.260;11.422;2023-11-21T09:17:35;11.60;80.70
82782;DHT22;72517;47.260;11.422;2023-11-21T09:20:02;11.60;80.70
82782;DHT22;72517;47.260;11.422;2023-11-21T09:22:31;11.70;81.80
82782;DHT22;72517;47.260;11.422;2023-11-21T09:24:58;11.80;82.60
82782;DHT22;72517;47.260;11.422;2023-11-21T09:27:25;12.00;83.40
82782;DHT22;72517;47.260;11.422;2023-11-21T09:29:52;12.20;81.70
82782;DHT22;72517;47.260;11.422;2023-11-21T09:32:20;12.40;82.10
82782;DHT22;72517;47.260;11.422;2023-11-21T09:34:49;12.70;81.60
82782;DHT22;72517;47.260;11.422;2023-11-21T09:37:16;12.90;80.10
82782;DHT22;72517;47.260;11.422;2023-11-21T09:39:44;13.20;79.80
82782;DHT22;72517;47.260;11.422;2023-11-21T09:42:19;13.60;78.60
82782;DHT22;72517;47.260;11.422;2023-11-21T09:47:38;14.40;73.90
82782;DHT22;72517;47.260;11.422;2023-11-21T09:50:06;15.20;70.10
82782;DHT22;72517;47.260;11.422;2023-11-21T09:53:13;17.60;67.90
82782;DHT22;72517;47.260;11.422;2023-11-21T09:55:35;20.70;60.00
82782;DHT22;72517;47.260;11.422;2023-11-21T09:58:03;21.60;52.30
82782;DHT22;72517;47.260;11.422;2023-11-21T10:00:33;24.00;48.40
82782;DHT22;72517;47.260;11.422;2023-11-21T10:03:00;25.30;44.50
82782;DHT22;72517;47.260;11.422;2023-11-21T10:05:28;24.60;42.20
82782;DHT22;72517;47.260;11.422;2023-11-21T10:07:58;23.70;41.60
82782;DHT22;72517;47.260;11.422;2023-11-21T10:10:27;22.70;42.30
82782;DHT22;72517;47.260;11.422;2023-11-21T10:12:57;21.70;43.30
82782;DHT22;72517;47.260;11.422;2023-11-21T10:15:28;21.00;43.90
82782;DHT22;72517;47.260;11.422;2023-11-21T10:17:56;20.20;45.10
82782;DHT22;72517;47.260;11.422;2023-11-21T10:20:24;19.70;45.80
82782;DHT22;72517;47.260;11.422;2023-11-21T10:22:52;19.30;46.00
82782;DHT22;72517;47.260;11.422;2023-11-21T10:25:19;19.20;46.50
82782;DHT22;72517;47.260;11.422;2023-11-21T10:27:48;19.00;46.90
82782;DHT22;72517;47.260;11.422;2023-11-21T10:30:17;19.10;46.90
82782;DHT22;72517;47.260;11.422;2023-11-21T10:32:44;19.40;47.10
82782;DHT22;72517;47.260;11.422;2023-11-21T10:35:12;19.50;47.60
82782;DHT22;72517;47.260;11.422;2023-11-21T10:37:39;19.50;47.10
82782;DHT22;72517;47.260;11.422;2023-11-21T10:40:10;19.20;46.00
82782;DHT22;72517;47.260;11.422;2023-11-21T10:42:41;18.80;46.30
82782;DHT22;72517;47.260;11.422;2023-11-21T10:45:09;18.50;46.50
82782;DHT22;72517;47.260;11.422;2023-11-21T10:47:43;18.20;47.80
82782;DHT22;72517;47.260;11.422;2023-11-21T10:50:10;18.00;48.00
82782;DHT22;72517;47.260;11.422;2023-11-21T10:52:39;17.90;48.50
82782;DHT22;72517;47.260;11.422;2023-11-21T10:55:21;17.80;48.50
82782;DHT22;72517;47.260;11.422;2023-11-21T10:57:52;17.70;48.80
82782;DHT22;72517;47.260;11.422;2023-11-21T11:00:19;17.60;48.90
82782;DHT22;72517;47.260;11.422;2023-11-21T11:02:51;17.30;49.10
82782;DHT22;72517;47.260;11.422;2023-11-21T11:05:20;17.00;49.30
82782;DHT22;72517;47.260;11.422;2023-11-21T11:07:51;16.60;50.00
82782;DHT22;72517;47.260;11.422;2023-11-21T11:10:23;16.10;50.40
82782;DHT22;72517;47.260;11.422;2023-11-21T11:12:53;15.70;51.10
82782;DHT22;72517;47.260;11.422;2023-11-21T11:15:21;15.20;52.50
82782;DHT22;72517;47.260;11.422;2023-11-21T11:17:49;14.70;53.30
82782;DHT22;72517;47.260;11.422;2023-11-21T11:20:17;14.50;54.30
82782;DHT22;72517;47.260;11.422;2023-11-21T11:23:11;14.10;55.40
82782;DHT22;72517;47.260;11.422;2023-11-21T11:29:03;13.30;58.30
82782;DHT22;72517;47.260;11.422;2023-11-21T11:34:29;12.60;60.90
82782;DHT22;72517;47.260;11.422;2023-11-21T11:37:05;12.40;62.20
82782;DHT22;72517;47.260;11.422;2023-11-21T11:39:38;12.20;63.10
82782;DHT22;72517;47.260;11.422;2023-11-21T11:42:11;12.00;63.80
82782;DHT22;72517;47.260;11.422;2023-11-21T11:50:11;11.80;67.30
82782;DHT22;72517;47.260;11.422;2023-11-21T11:52:47;11.80;67.80
82782;DHT22;72517;47.260;11.422;2023-11-21T11:55:17;11.70;68.20
82782;DHT22;72517;47.260;11.422;2023-11-21T11:57:49;11.60;69.00
82782;DHT22;72517;47.260;11.422;2023-11-21T12:00:17;11.50;69.80
82782;DHT22;72517;47.260;11.422;2023-11-21T12:02:46;11.40;71.20
82782;DHT22;72517;47.260;11.422;2023-11-21T12:05:15;11.30;72.00
82782;DHT22;72517;47.260;11.422;2023-11-21T12:07:51;11.30;73.10
82782;DHT22;72517;47.260;11.422;2023-11-21T12:10:29;11.30;74.40
82782;DHT22;72517;47.260;11.422;2023-11-21T12:13:00;11.30;75.40
82782;DHT22;72517;47.260;11.422;2023-11-21T12:15:28;11.20;75.50
82782;DHT22;72517;47.260;11.422;2023-11-21T12:17:56;11.20;75.70
82782;DHT22;72517;47.260;11.422;2023-11-21T12:20:25;11.20;76.60
82782;DHT22;72517;47.260;11.422;2023-11-21T12:22:59;11.10;76.60
82782;DHT22;72517;47.260;11.422;2023-11-21T12:25:27;11.00;76.10
82782;DHT22;72517;47.260;11.422;2023-11-21T12:27:57;10.90;77.40
82782;DHT22;72517;47.260;11.422;2023-11-21T12:30:29;10.80;78.60
82782;DHT22;72517;47.260;11.422;2023-11-21T12:32:59;10.70;80.60
82782;DHT22;72517;47.260;11.422;2023-11-21T12:35:31;10.60;83.10
82782;DHT22;72517;47.260;11.422;2023-11-21T12:37:59;10.50;84.00
82782;DHT22;72517;47.260;11.422;2023-11-21T12:40:28;10.50;84.70
82782;DHT22;72517;47.260;11.422;2023-11-21T12:42:57;10.30;85.20
82782;DHT22;72517;47.260;11.422;2023-11-21T12:45:27;10.20;86.70
82782;DHT22;72517;47.260;11.422;2023-11-21T12:47:59;10.10;87.80
82782;DHT22;72517;47.260;11.422;2023-11-21T12:50:30;10.10;90.40
82782;DHT22;72517;47.260;11.422;2023-11-21T12:53:04;10.00;90.90
82782;DHT22;72517;47.260;11.422;2023-11-21T12:55:32;9.90;92.30
82782;DHT22;72517;47.260;11.422;2023-11-21T12:58:04;9.90;93.10
82782;DHT22;72517;47.260;11.422;2023-11-21T13:00:45;9.90;94.10
82782;DHT22;72517;47.260;11.422;2023-11-21T13:03:18;9.90;94.80
82782;DHT22;72517;47.260;11.422;2023-11-21T13:05:51;9.90;95.30
82782;DHT22;72517;47.260;11.422;2023-11-21T13:08:23;9.90;95.30
82782;DHT22;72517;47.260;11.422;2023-11-21T13:10:52;9.90;95.30
82782;DHT22;72517;47.260;11.422;2023-11-21T13:13:20;9.90;96.00
82782;DHT22;72517;47.260;11.422;2023-11-21T13:15:54;9.90;96.30
82782;DHT22;72517;47.260;11.422;2023-11-21T13:18:25;9.90;96.70
82782;DHT22;72517;47.260;11.422;2023-11-21T13:20:54;9.90;96.60
82782;DHT22;72517;47.260;11.422;2023-11-21T13:23:22;9.90;96.80
82782;DHT22;72517;47.260;11.422;2023-11-21T13:25:49;10.00;96.10
82782;DHT22;72517;47.260;11.422;2023-11-21T13:28:16;10.00;96.20
82782;DHT22;72517;47.260;11.422;2023-11-21T13:30:47;10.00;96.10
82782;DHT22;72517;47.260;11.422;2023-11-21T13:33:14;10.00;96.20
82782;DHT22;72517;47.260;11.422;2023-11-21T13:35:44;10.20;96.50
82782;DHT22;72517;47.260;11.422;2023-11-21T13:38:15;10.30;96.00
82782;DHT22;72517;47.260;11.422;2023-11-21T13:40:47;10.40;95.10
82782;DHT22;72517;47.260;11.422;2023-11-21T13:43:17;10.50;94.80
82782;DHT22;72517;47.260;11.422;2023-11-21T13:45:46;10.50;94.30
82782;DHT22;72517;47.260;11.422;2023-11-21T13:48:15;10.50;94.30
82782;DHT22;72517;47.260;11.422;2023-11-21T13:50:50;10.40;94.30
82782;DHT22;72517;47.260;11.422;2023-11-21T13:53:23;10.40;94.80
82782;DHT22;72517;47.260;11.422;2023-11-21T13:55:53;10.30;95.10
82782;DHT22;72517;47.260;11.422;2023-11-21T13:58:23;10.30;95.50
82782;DHT22;72517;47.260;11.422;2023-11-21T14:01:00;10.10;96.10
82782;DHT22;72517;47.260;11.422;2023-11-21T14:03:31;10.00;96.70
82782;DHT22;72517;47.260;11.422;2023-11-21T14:06:15;10.00;97.40
82782;DHT22;72517;47.260;11.422;2023-11-21T14:08:50;9.90;98.30
82782;DHT22;72517;47.260;11.422;2023-11-21T14:11:18;9.90;98.70
82782;DHT22;72517;47.260;11.422;2023-11-21T14:13:47;9.90;98.90
82782;DHT22;72517;47.260;11.422;2023-11-21T14:16:15;9.80;99.20
82782;DHT22;72517;47.260;11.422;2023-11-21T14:18:45;9.70;99.60
82782;DHT22;72517;47.260;11.422;2023-11-21T14:21:21;9.70;99.90
82782;DHT22;72517;47.260;11.422;2023-11-21T14:23:48;9.60;99.90
82782;DHT22;72517;47.260;11.422;2023-11-21T14:26:15;9.60;99.90
82782;DHT22;72517;47.260;11.422;2023-11-21T14:28:42;9.50;99.90
82782;DHT22;72517;47.260;11.422;2023-11-21T14:31:09;9.50;99.90
82782;DHT22;72517;47.260;11.422;2023-11-21T14:33:38;9.50;99.90
82782;DHT22;72517;47.260;11.422;2023-11-21T14:36:06;9.50;99.90
82782;DHT22;72517;47.260;11.422;2023-11-21T14:38:36;9.40;99.90
82782;DHT22;72517;47.260;11.422;2023-11-21T14:41:05;9.40;99.90
82782;DHT22;72517;47.260;11.422;2023-11-21T14:43:34;9.40;99.90
82782;DHT22;72517;47.260;11.422;2023-11-21T14:46:02;9.40;99.90
82782;DHT22;72517;47.260;11.422;2023-11-21T14:48:32;9.40;99.90
82782;DHT22;72517;47.260;11.422;2023-11-21T14:51:11;9.40;99.90
82782;DHT22;72517;47.260;11.422;2023-11-21T14:53:57;9.40;99.90
82782;DHT22;72517;47.260;11.422;2023-11-21T14:56:27;9.40;99.90
82782;DHT22;72517;47.260;11.422;2023-11-21T14:58:57;9.40;99.90
82782;DHT22;72517;47.260;11.422;2023-11-21T15:01:26;9.30;99.90
82782;DHT22;72517;47.260;11.422;2023-11-21T15:04:10;9.30;99.90
82782;DHT22;72517;47.260;11.422;2023-11-21T15:06:47;9.20;99.90
82782;DHT22;72517;47.260;11.422;2023-11-21T15:09:13;9.20;99.90
82782;DHT22;72517;47.260;11.422;2023-11-21T15:12:04;9.20;99.90
82782;DHT22;72517;47.260;11.422;2023-11-21T15:14:40;9.20;99.90
82782;DHT22;72517;47.260;11.422;2023-11-21T15:17:08;9.20;99.90
82782;DHT22;72517;47.260;11.422;2023-11-21T15:19:35;9.20;99.90
82782;DHT22;72517;47.260;11.422;2023-11-21T15:22:02;9.20;99.90
82782;DHT22;72517;47.260;11.422;2023-11-21T15:24:30;9.20;99.90
82782;DHT22;72517;47.260;11.422;2023-11-21T15:26:57;9.20;99.90
82782;DHT22;72517;47.260;11.422;2023-11-21T15:29:24;9.10;99.90
82782;DHT22;72517;47.260;11.422;2023-11-21T15:31:51;9.00;99.90
82782;DHT22;72517;47.260;11.422;2023-11-21T15:34:22;9.00;99.90
82782;DHT22;72517;47.260;11.422;2023-11-21T15:36:49;9.00;99.90
82782;DHT22;72517;47.260;11.422;2023-11-21T15:39:18;9.00;99.90
82782;DHT22;72517;47.260;11.422;2023-11-21T15:41:47;9.00;99.90
82782;DHT22;72517;47.260;11.422;2023-11-21T15:44:14;9.00;99.90
82782;DHT22;72517;47.260;11.422;2023-11-21T15:46:41;8.90;99.90
82782;DHT22;72517;47.260;11.422;2023-11-21T15:49:08;8.90;99.90
82782;DHT22;72517;47.260;11.422;2023-11-21T15:51:43;8.90;99.90